Accueil
METAR-TAF:

METAR-TAF

Aéroports :

Aéroport international général Rafael Buelna

Mazatlán, Mexique

latitude: 23-10N, longitude: 106-16W, altitude: 10 m

Observation

Le bulletin a été fait il y a 46 minutes, à 07:43 UTC
Vent calme
Température 13°C
Humidité 88%
Pression 1011 hPa
Visibilité: 16.1 km
Ciel clair

METAR: MMMZ 020743Z 00000KT 10SM SKC 13/11 A2985 RMK ISOL CI HZY

Heure: 01:29 (08:29 UTC)

Prévision

Le bulletin a été fait il y a 3 heures et 25 minutes, à 05:04 UTC
Prévision valable du 02 à 06 UTC au 03 à 12 UTC
Vent kt de nord
Visibilité: 10 km
Nuages épars à une hauteur de 20000 ft
A partir de 02 à 1800 UTC
Vent 10 kt de ouest
Visibilité: 10 km
Nuages épars à une hauteur de 20000 ft
A partir de 03 à 0400 UTC
Vent 5 kt de ouest/sud-ouest
Visibilité: 10 km
Nuages épars à une hauteur de 20000 ft

TAF: MMMZ 020504Z 0206/0312 00000KT P6SM SCT200 TX26/0220Z TN12/0212Z FM021800 26010KT P6SM SCT200 FM030400 25005KT P6SM SCT200

Observations et prévisions météorologiques de plus de 4000 aéroports (messages METAR et TAF).

Les stations disponibles sont représentées par des disques jaunes et rouges sur la carte.

Passer la souris dessus pour voir le nom de la station.

Cliquer dessus pour voir les observations et prévisions météorologiques.

Pour changer de carte: cliquez sur les boutons verts avec une croix noire pour zoomer, sur le bouton vert avec un tiret pour effectuer un zoom arrière, ou sur les flèches vertes pour les cartes adjacentes.


METAR-TAF: